This is the latest recevied weather packets stored in our database for station/object IK0TIX. If no packets are shown the sender has not sent any weather packets the latest 10 day(s).
| Time | Temp. | Humidity | Pressure | Rain* | Wind** | Luminosity | Snow |
|---|---|---|---|---|---|---|---|
| 1777257597 | 15.56° C | 81% | 1019.6 hPa | 0 mm | - | - | - |
| 1777255787 | 16.11° C | 83% | 1019.6 hPa | 0 mm | - | - | - |
| 1777255484 | 15.56° C | 81% | 1019.5 hPa | 0 mm | - | - | - |
| 1777255173 | 16.11° C | 81% | 1019.6 hPa | 0 mm | - | - | - |
| 1777251272 | 16.11° C | 84% | 1019.7 hPa | 0 mm | - | - | - |
| 1777250071 | 16.11° C | 83% | 1019.6 hPa | 0 mm | - | - | - |
| 1777246476 | 16.11° C | 82% | 1020.1 hPa | 0 mm | - | - | - |
| 1777245894 | 16.11° C | 81% | 1020.1 hPa | 0 mm | - | - | - |
| 1777244675 | 16.11° C | 81% | 1020.1 hPa | 0 mm | - | - | - |
| 1777244389 | 16.11° C | 81% | 1020.1 hPa | 0 mm | - | - | - |
| 1777243175 | 16.67° C | 80% | 1020.1 hPa | 0 mm | - | - | - |
| 1777242901 | 16.67° C | 80% | 1020.1 hPa | 0 mm | - | - | - |
| 1777241677 | 16.67° C | 81% | 1020 hPa | 0 mm | - | - | - |
| 1777241383 | 16.67° C | 82% | 1020.1 hPa | 0 mm | - | - | - |
| 1777240168 | 17.22° C | 83% | 1020.2 hPa | 0 mm | - | - | - |
| 1777239310 | 16.67° C | 83% | 1020.3 hPa | 0 mm | - | - | - |
| 1777238991 | 16.67° C | 83% | 1020.3 hPa | 0 mm | - | - | - |
| 1777235970 | 17.22° C | 82% | 1020.3 hPa | 0 mm | - | - | - |
| 1777234184 | 17.78° C | 81% | 1020.3 hPa | 0 mm | - | - | - |
| 1777233873 | 17.78° C | 82% | 1020.2 hPa | 0 mm | - | - | - |
| 1777230303 | 17.78° C | 76% | 1019.5 hPa | 0 mm | - | - | - |
| 1777229672 | 18.33° C | 74% | 1019.4 hPa | 0 mm | - | - | - |
| 1777229381 | 18.33° C | 73% | 1019.4 hPa | 0 mm | - | - | - |
| 1777229095 | 18.33° C | 73% | 1019.4 hPa | 0 mm | - | - | - |
| 1777227573 | 19.44° C | 68% | 1019.3 hPa | 0 mm | - | - | - |
* Rain latest hour (hover to see other rain measurements)
** Current wind speed in m/s (hover to see current wind gust speed)